Aérodrome :
LOGIN :

S'inscrire | Disclaimer

   EN    FR    IT 

 










Légende :    VFR   VFR Marginal   IFR   IFR Intensif   IFR Très Intensif
Visi : 
Plafond : 
>= 8 km
>= 3000ft
5 à 8 km
1000 à 3000 ft
1500m à 5 km
500 à 1000 ft
800 à 1500m
200 à 500 ft
< 800m
< 200 ft
Symboles :   Orages  Brouillard  Fortes neiges  Fortes précipitations  Vent > 20 kt
SIGMETs :   Divers  Orages  Givrage  Turbulence  Onde Orograph.  Cendres Volcan.







- Altitude de l'aérodrome : 464 ft
- Code IATA : EVX
- Voir les cartes d'approche


LFOE - Evreux

DERNIER METAR :
  • 210730Z AUTO 32002KT 3500 BR NSC 05/04 Q1028 BECMG 9999 NSW

METARs EXPIRÉS :
  • 210700Z AUTO 33002KT 3100 BR NSC 04/03 Q1028 TEMPO VV/// BECMG 9999 NSW
  • 210630Z AUTO 00000KT 3600 BR NSC 03/02 Q1028 TEMPO VV/// BECMG 9999 NSW
  • 210600Z AUTO 00000KT 6000 NSC 03/03 Q1028 TEMPO 0800 FG VV///
  • 210530Z AUTO VRB02KT 6000 NSC 03/02 Q1028 TEMPO 0800 FG VV///
  • 210500Z AUTO 35005KT 4300 BR NSC 03/02 Q1028 TEMPO 0800 FG VV///

TAF TAF LFOE
Valide du 21 à 03h jusqu'au 22 à 03h UTC


210200Z 2103/2203 02005KT CAVOK
TEMPO 2103/2108 3000 BR
PROB40 2104/2108 0800 FG VV///
Pas de NOTAMs connus pour ce terrain.



MET'MAP, la Météo Aéronautique d'un coup d'oeil ! - Copyright ORBIFLY Décembre 2007 - Disclaimer

ORBIFLY MET'MAP TEAM :

Programmation & Développement : Alexandra Zaïnal
Conception & Développement : Baudouin d'Aumeries
Co-Programmation & Développement : Marc-Olivier Méhu
Soutien technique & logistique : Manuel Goepfert

Contact : metmap@orbifly.com




SOURCES & CREDITS :

   NOAA